createdAt,value
2018-11-04T00:00:21.934Z,101605.75
2018-11-04T00:01:24.633Z,101611.08
2018-11-04T00:02:27.319Z,101612.91
2018-11-04T00:03:29.994Z,101611.20
2018-11-04T00:04:32.999Z,101609.37
2018-11-04T00:05:35.674Z,101611.58
2018-11-04T00:06:38.362Z,101615.20
2018-11-04T00:07:41.036Z,101614.23
2018-11-04T00:08:43.717Z,101613.50
2018-11-04T00:09:46.751Z,101612.53
2018-11-04T00:10:49.406Z,101615.67
2018-11-04T00:11:52.087Z,101619.20
2018-11-04T00:12:54.815Z,101614.83
2018-11-04T00:13:57.499Z,101619.20
2018-11-04T00:15:00.584Z,101612.63
2018-11-04T00:16:03.267Z,101609.87
2018-11-04T00:17:05.950Z,101613.50
2018-11-04T00:18:08.721Z,101606.84
2018-11-04T00:19:11.466Z,101598.84
2018-11-04T00:20:15.193Z,101602.84
2018-11-04T00:21:17.894Z,101604.17
2018-11-04T00:22:20.562Z,101597.14
2018-11-04T00:23:23.248Z,101600.64
2018-11-04T00:24:25.923Z,101595.31
2018-11-04T00:25:28.879Z,101595.81
2018-11-04T00:26:31.546Z,101599.31
2018-11-04T00:27:34.208Z,101595.81
2018-11-04T00:28:36.875Z,101594.11
2018-11-04T00:29:39.554Z,101597.14
2018-11-04T00:30:42.511Z,101593.61
2018-11-04T00:31:45.210Z,101598.94
2018-11-04T00:32:47.900Z,101600.27
2018-11-04T00:33:50.571Z,101599.44
2018-11-04T00:34:53.279Z,101597.61
2018-11-04T00:35:56.247Z,101600.77
2018-11-04T00:36:58.994Z,101607.02
2018-11-04T00:38:01.687Z,101603.43
2018-11-04T00:39:06.454Z,101599.44
2018-11-04T00:40:09.290Z,101597.33
2018-11-04T00:41:11.973Z,101599.03
2018-11-04T00:42:14.658Z,101594.66
2018-11-04T00:43:17.322Z,101596.77
2018-11-04T00:44:19.998Z,101597.33
2018-11-04T00:45:22.775Z,101594.30
2018-11-04T00:46:25.378Z,101590.67
2018-11-04T00:47:28.322Z,101592.00
2018-11-04T00:48:31.014Z,101597.83
2018-11-04T00:49:33.929Z,101599.99
2018-11-04T00:50:36.586Z,101595.16
2018-11-04T00:51:39.266Z,101600.95
2018-11-04T00:52:42.442Z,101602.28
2018-11-04T00:53:45.138Z,101589.43
2018-11-04T00:54:47.821Z,101596.86
2018-11-04T00:55:53.486Z,101592.00
2018-11-04T00:56:56.447Z,101599.99
2018-11-04T00:57:59.129Z,101598.30
2018-11-04T00:59:01.811Z,101574.80
2018-11-04T01:00:07.143Z,101602.28
2018-11-04T01:01:09.828Z,101603.63
2018-11-04T01:02:12.782Z,101606.19
2018-11-04T01:03:15.476Z,101606.66
2018-11-04T01:04:18.143Z,101606.75
2018-11-04T01:05:20.833Z,101607.98
2018-11-04T01:06:23.531Z,101611.61
2018-11-04T01:07:26.522Z,101608.08
2018-11-04T01:08:29.213Z,101612.08
2018-11-04T01:09:31.927Z,101613.41
2018-11-04T01:10:34.598Z,101617.81
2018-11-04T01:11:37.311Z,101615.61
2018-11-04T01:12:40.867Z,101610.38
2018-11-04T01:13:43.554Z,101616.94
2018-11-04T01:14:46.232Z,101613.41
2018-11-04T01:15:48.907Z,101614.28
2018-11-04T01:16:51.581Z,101601.05
2018-11-04T01:17:54.302Z,101598.38
2018-11-04T01:18:56.970Z,101597.89
2018-11-04T01:19:59.647Z,101597.42
2018-11-04T01:21:02.363Z,101597.89
2018-11-04T01:22:05.158Z,101605.81
2018-11-04T01:23:08.127Z,101600.09
2018-11-04T01:24:10.833Z,101593.05
2018-11-04T01:25:13.528Z,101593.89
2018-11-04T01:26:16.195Z,101599.63
2018-11-04T01:27:18.886Z,101597.42
2018-11-04T01:28:21.562Z,101604.95
2018-11-04T01:29:24.271Z,101608.08
2018-11-04T01:30:27.064Z,101606.28
2018-11-04T01:31:29.663Z,101608.08
2018-11-04T01:32:32.362Z,101610.74
2018-11-04T01:33:35.398Z,101615.14
2018-11-04T01:34:38.058Z,101609.87
2018-11-04T01:35:40.738Z,101618.73
2018-11-04T01:36:43.419Z,101615.20
2018-11-04T01:37:46.102Z,101620.53
2018-11-04T01:38:48.916Z,101619.20
2018-11-04T01:39:51.612Z,101614.28
2018-11-04T01:40:54.287Z,101608.95
2018-11-04T01:41:56.958Z,101612.95
2018-11-04T01:42:59.635Z,101610.66
2018-11-04T01:44:02.706Z,101613.31
2018-11-04T01:45:07.097Z,101613.22
2018-11-04T01:46:09.770Z,101608.77
2018-11-04T01:47:12.451Z,101602.56
2018-11-04T01:48:15.126Z,101609.13
2018-11-04T01:49:18.110Z,101603.43
2018-11-04T01:50:20.794Z,101603.80
2018-11-04T01:51:23.486Z,101601.14
2018-11-04T01:52:26.162Z,101601.14
2018-11-04T01:53:28.835Z,101604.17
2018-11-04T01:54:31.804Z,101606.84
2018-11-04T01:55:34.498Z,101607.30
2018-11-04T01:56:37.171Z,101605.50
2018-11-04T01:57:39.849Z,101607.30
2018-11-04T01:58:42.538Z,101598.34
2018-11-04T01:59:45.510Z,101601.51
2018-11-04T02:00:48.194Z,101597.51
2018-11-04T02:01:50.876Z,101596.64
2018-11-04T02:02:53.568Z,101602.34
2018-11-04T02:03:56.262Z,101597.14
2018-11-04T02:04:58.946Z,101597.02
2018-11-04T02:06:01.618Z,101599.81
2018-11-04T02:07:04.342Z,101600.17
2018-11-04T02:08:07.039Z,101601.97
2018-11-04T02:09:10.563Z,101597.98
2018-11-04T02:10:14.276Z,101603.30
2018-11-04T02:11:16.971Z,101608.63
2018-11-04T02:12:19.675Z,101603.80
2018-11-04T02:13:22.349Z,101604.17
2018-11-04T02:14:25.039Z,101603.80
2018-11-04T02:15:28.089Z,101606.47
2018-11-04T02:16:30.779Z,101598.10
2018-11-04T02:17:33.469Z,101603.80
2018-11-04T02:18:36.162Z,101607.80
2018-11-04T02:19:38.855Z,101602.94
2018-11-04T02:20:41.947Z,101603.43
2018-11-04T02:21:44.630Z,101608.77
2018-11-04T02:22:47.533Z,101610.56
2018-11-04T02:23:50.211Z,101612.75
2018-11-04T02:24:52.898Z,101607.43
2018-11-04T02:25:56.007Z,101607.02
2018-11-04T02:26:58.700Z,101609.69
2018-11-04T02:28:01.496Z,101613.69
2018-11-04T02:29:04.347Z,101609.69
2018-11-04T02:30:08.067Z,101613.69
2018-11-04T02:31:11.087Z,101618.55
2018-11-04T02:32:13.786Z,101614.55
2018-11-04T02:33:16.506Z,101613.22
2018-11-04T02:34:19.192Z,101609.69
2018-11-04T02:35:21.886Z,101606.56
2018-11-04T02:36:24.563Z,101607.02
2018-11-04T02:37:27.247Z,101603.03
2018-11-04T02:38:29.925Z,101598.20
2018-11-04T02:39:32.626Z,101599.03
2018-11-04T02:40:35.316Z,101590.67
2018-11-04T02:41:38.410Z,101596.00
2018-11-04T02:42:41.094Z,101598.20
2018-11-04T02:43:43.782Z,101596.37
2018-11-04T02:44:46.511Z,101597.70
2018-11-04T02:45:49.186Z,101598.20
2018-11-04T02:46:52.296Z,101603.99
2018-11-04T02:47:54.953Z,101600.86
2018-11-04T02:48:57.639Z,101601.70
2018-11-04T02:50:00.301Z,101602.56
2018-11-04T02:51:03.047Z,101592.00
2018-11-04T02:52:06.126Z,101596.00
2018-11-04T02:53:08.829Z,101599.99
2018-11-04T02:54:11.491Z,101602.20
2018-11-04T02:55:14.167Z,101599.99
2018-11-04T02:56:16.846Z,101601.33
2018-11-04T02:57:19.531Z,101605.32
2018-11-04T02:58:22.226Z,101600.95
2018-11-04T02:59:24.912Z,101602.28
2018-11-04T03:00:27.630Z,101605.32
2018-11-04T03:01:30.354Z,101605.32
2018-11-04T03:02:33.035Z,101606.66
2018-11-04T03:03:35.691Z,101607.62
2018-11-04T03:04:38.375Z,101608.48
2018-11-04T03:05:41.048Z,101615.98
2018-11-04T03:06:43.761Z,101609.31
2018-11-04T03:07:46.858Z,101610.66
2018-11-04T03:08:49.546Z,101611.98
2018-11-04T03:09:52.227Z,101609.31
2018-11-04T03:10:54.915Z,101607.62
2018-11-04T03:11:57.591Z,101603.63
2018-11-04T03:13:00.602Z,101605.32
2018-11-04T03:14:03.330Z,101597.89
2018-11-04T03:15:06.128Z,101602.28
2018-11-04T03:16:08.822Z,101600.95
2018-11-04T03:17:11.518Z,101602.28
2018-11-04T03:18:14.559Z,101606.75
2018-11-04T03:19:17.236Z,101606.75
2018-11-04T03:20:19.918Z,101612.48
2018-11-04T03:21:22.609Z,101610.28
2018-11-04T03:22:25.363Z,101608.95
2018-11-04T03:23:28.351Z,101608.95
2018-11-04T03:24:31.243Z,101613.31
2018-11-04T03:25:33.927Z,101615.61
2018-11-04T03:26:36.612Z,101604.55
2018-11-04T03:27:39.306Z,101608.08
2018-11-04T03:28:41.975Z,101606.75
2018-11-04T03:29:44.664Z,101603.63
2018-11-04T03:30:47.370Z,101605.41
2018-11-04T03:31:50.071Z,101602.02
2018-11-04T03:32:52.738Z,101602.84
2018-11-04T03:33:55.780Z,101601.52
2018-11-04T03:34:58.466Z,101608.95
2018-11-04T03:36:01.204Z,101609.87
2018-11-04T03:37:04.331Z,101606.01
2018-11-04T03:38:07.526Z,101607.21
2018-11-04T03:39:11.055Z,101613.13
2018-11-04T03:40:13.764Z,101615.33
2018-11-04T03:41:16.454Z,101619.33
2018-11-04T03:42:19.158Z,101618.83
2018-11-04T03:43:21.883Z,101617.13
2018-11-04T03:44:24.879Z,101615.80
2018-11-04T03:45:27.551Z,101611.34
2018-11-04T03:46:30.258Z,101613.63
2018-11-04T03:47:32.963Z,101618.46
2018-11-04T03:48:35.667Z,101618.00
2018-11-04T03:49:38.833Z,101612.77
2018-11-04T03:50:41.526Z,101612.30
2018-11-04T03:51:44.200Z,101611.80
2018-11-04T03:52:46.891Z,101611.43
2018-11-04T03:53:49.563Z,101614.09
2018-11-04T03:54:52.576Z,101612.77
2018-11-04T03:55:55.269Z,101612.30
2018-11-04T03:56:57.919Z,101612.77
2018-11-04T03:58:00.628Z,101607.93
2018-11-04T03:59:03.415Z,101614.09
2018-11-04T04:00:09.745Z,101618.95
2018-11-04T04:01:12.458Z,101615.05
2018-11-04T04:02:15.162Z,101622.09
2018-11-04T04:03:17.859Z,101615.05
2018-11-04T04:04:20.684Z,101613.72
2018-11-04T04:05:23.706Z,101619.05
2018-11-04T04:06:26.402Z,101614.69
2018-11-04T04:07:29.122Z,101615.05
2018-11-04T04:08:31.827Z,101614.69
2018-11-04T04:09:34.519Z,101608.52
2018-11-04T04:10:37.526Z,101609.35
2018-11-04T04:11:40.231Z,101612.02
2018-11-04T04:12:42.914Z,101608.15
2018-11-04T04:13:45.619Z,101603.66
2018-11-04T04:14:48.299Z,101602.83
2018-11-04T04:15:51.259Z,101603.28
2018-11-04T04:16:53.931Z,101608.62
2018-11-04T04:17:56.647Z,101601.59
2018-11-04T04:18:59.378Z,101602.91
2018-11-04T04:20:02.085Z,101606.91
2018-11-04T04:21:09.003Z,101607.78
2018-11-04T04:22:11.711Z,101606.81
2018-11-04T04:23:14.396Z,101612.23
2018-11-04T04:24:17.078Z,101613.57
2018-11-04T04:25:19.746Z,101612.23
2018-11-04T04:26:22.555Z,101616.73
2018-11-04T04:27:25.272Z,101618.06
2018-11-04T04:28:27.967Z,101616.73
2018-11-04T04:29:30.654Z,101621.56
2018-11-04T04:30:33.334Z,101616.73
2018-11-04T04:31:36.366Z,101616.23
2018-11-04T04:32:39.086Z,101618.44
2018-11-04T04:33:41.793Z,101611.28
2018-11-04T04:34:44.488Z,101611.28
2018-11-04T04:35:47.155Z,101609.48
2018-11-04T04:36:50.153Z,101613.84
2018-11-04T04:37:52.872Z,101607.66
2018-11-04T04:38:55.559Z,101607.19
2018-11-04T04:39:58.280Z,101595.66
2018-11-04T04:41:00.986Z,101604.52
2018-11-04T04:42:04.092Z,101604.98
2018-11-04T04:43:06.778Z,101607.19
2018-11-04T04:44:09.467Z,101605.86
2018-11-04T04:45:12.158Z,101600.03
2018-11-04T04:46:14.859Z,101608.02
2018-11-04T04:47:17.929Z,101604.03
2018-11-04T04:48:20.800Z,101606.23
2018-11-04T04:49:23.486Z,101596.01
2018-11-04T04:50:26.168Z,101608.02
2018-11-04T04:51:28.867Z,101608.39
2018-11-04T04:52:31.852Z,101607.56
2018-11-04T04:53:34.531Z,101608.39
2018-11-04T04:54:37.232Z,101605.86
2018-11-04T04:55:39.920Z,101606.69
2018-11-04T04:56:42.628Z,101607.66
2018-11-04T04:57:45.582Z,101607.66
2018-11-04T04:58:48.252Z,101587.66
2018-11-04T04:59:50.926Z,101612.15
2018-11-04T05:00:54.283Z,101615.64
2018-11-04T05:01:56.951Z,101612.98
2018-11-04T05:03:00.003Z,101617.47
2018-11-04T05:04:02.715Z,101619.27
2018-11-04T05:05:05.570Z,101614.91
2018-11-04T05:06:08.690Z,101628.59
2018-11-04T05:07:11.390Z,101630.05
2018-11-04T05:08:14.064Z,101628.22
2018-11-04T05:09:16.793Z,101631.75
2018-11-04T05:10:19.483Z,101623.86
2018-11-04T05:11:22.276Z,101620.36
2018-11-04T05:12:24.960Z,101623.48
2018-11-04T05:13:27.633Z,101627.85
2018-11-04T05:14:30.319Z,101623.11
2018-11-04T05:15:32.998Z,101623.11
2018-11-04T05:16:36.007Z,101622.65
2018-11-04T05:17:38.707Z,101629.77
2018-11-04T05:18:41.613Z,101634.27
2018-11-04T05:19:44.315Z,101633.77
2018-11-04T05:20:46.986Z,101640.42
2018-11-04T05:21:49.990Z,101636.56
2018-11-04T05:22:52.710Z,101624.57
2018-11-04T05:23:55.402Z,101622.74
2018-11-04T05:24:58.109Z,101618.38
2018-11-04T05:26:00.794Z,101621.04
2018-11-04T05:27:03.853Z,101615.84
2018-11-04T05:28:07.138Z,101614.50
2018-11-04T05:29:09.818Z,101616.20
2018-11-04T05:30:12.527Z,101585.43
2018-11-04T05:31:15.239Z,101622.96
2018-11-04T05:32:17.921Z,101618.97
2018-11-04T05:33:20.610Z,101615.93
2018-11-04T05:34:23.305Z,101613.64
2018-11-04T05:35:25.988Z,101621.62
2018-11-04T05:36:28.688Z,101621.75
2018-11-04T05:37:31.650Z,101622.59
2018-11-04T05:38:34.374Z,101623.92
2018-11-04T05:39:37.066Z,101611.09
2018-11-04T05:40:39.759Z,101615.56
2018-11-04T05:41:42.457Z,101615.56
2018-11-04T05:42:45.459Z,101619.19
2018-11-04T05:43:48.151Z,101616.89
2018-11-04T05:44:50.854Z,101617.36
2018-11-04T05:45:53.671Z,101618.22
2018-11-04T05:46:56.366Z,101628.88
2018-11-04T05:47:59.060Z,101633.83
2018-11-04T05:49:01.738Z,101632.50
2018-11-04T05:50:05.002Z,101630.80
2018-11-04T05:51:07.671Z,101629.84
2018-11-04T05:52:10.342Z,101631.17
2018-11-04T05:53:13.418Z,101633.46
2018-11-04T05:54:16.114Z,101633.09
2018-11-04T05:55:18.787Z,101638.78
2018-11-04T05:56:21.467Z,101634.80
2018-11-04T05:57:24.186Z,101635.25
2018-11-04T05:58:26.888Z,101634.80
2018-11-04T05:59:29.558Z,101629.09
2018-11-04T06:00:32.246Z,101634.42
2018-11-04T06:01:34.956Z,101623.86
2018-11-04T06:02:37.690Z,101628.72
2018-11-04T06:03:40.730Z,101628.72
2018-11-04T06:04:43.420Z,101627.85
2018-11-04T06:05:46.133Z,101628.34
2018-11-04T06:06:48.826Z,101631.02
2018-11-04T06:07:51.508Z,101624.81
2018-11-04T06:08:54.562Z,101621.69
2018-11-04T06:09:57.226Z,101626.65
2018-11-04T06:10:59.895Z,101623.77
2018-11-04T06:12:02.706Z,101616.61
2018-11-04T06:13:05.514Z,101616.52
2018-11-04T06:14:08.470Z,101622.50
2018-11-04T06:15:11.155Z,101621.41
2018-11-04T06:16:13.849Z,101623.86
2018-11-04T06:17:16.575Z,101625.19
2018-11-04T06:18:19.279Z,101630.20
2018-11-04T06:19:22.260Z,101621.34
2018-11-04T06:20:24.938Z,101623.91
2018-11-04T06:21:27.654Z,101626.82
2018-11-04T06:22:30.350Z,101626.27
2018-11-04T06:23:33.050Z,101627.97
2018-11-04T06:24:36.131Z,101629.30
2018-11-04T06:25:38.811Z,101631.97
2018-11-04T06:26:41.495Z,101627.88
2018-11-04T06:27:44.203Z,101628.75
2018-11-04T06:28:46.933Z,101634.91
2018-11-04T06:29:49.634Z,101633.67
2018-11-04T06:30:52.326Z,101639.41
2018-11-04T06:31:55.026Z,101639.87
2018-11-04T06:32:57.742Z,101642.06
2018-11-04T06:34:00.652Z,101639.87
2018-11-04T06:35:03.746Z,101640.73
2018-11-04T06:36:06.441Z,101650.52
2018-11-04T06:37:09.135Z,101642.06
2018-11-04T06:38:11.805Z,101645.66
2018-11-04T06:39:14.482Z,101646.06
2018-11-04T06:40:17.456Z,101643.49
2018-11-04T06:41:20.130Z,101641.29
2018-11-04T06:42:22.814Z,101639.96
2018-11-04T06:43:25.486Z,101639.96
2018-11-04T06:44:28.186Z,101644.45
2018-11-04T06:45:31.354Z,101643.95
2018-11-04T06:46:34.062Z,101647.58
2018-11-04T06:47:37.055Z,101654.24
2018-11-04T06:48:40.302Z,101653.28
2018-11-04T06:49:43.046Z,101633.24
2018-11-04T06:50:46.126Z,101670.69
2018-11-04T06:51:48.819Z,101671.66
2018-11-04T06:52:51.502Z,101675.56
2018-11-04T06:53:54.191Z,101671.66
2018-11-04T06:54:56.870Z,101671.74
2018-11-04T06:55:59.834Z,101675.74
2018-11-04T06:57:02.520Z,101671.74
2018-11-04T06:58:05.739Z,101667.37
2018-11-04T06:59:08.767Z,101674.41
2018-11-04T07:00:11.887Z,101667.01
2018-11-04T07:01:14.777Z,101665.20
2018-11-04T07:02:17.458Z,101667.01
2018-11-04T07:03:20.139Z,101659.51
2018-11-04T07:04:24.090Z,101666.17
2018-11-04T07:05:26.790Z,101667.13
2018-11-04T07:06:29.734Z,101668.92
2018-11-04T07:07:32.446Z,101675.59
2018-11-04T07:08:35.131Z,101676.92
2018-11-04T07:09:37.838Z,101676.17
2018-11-04T07:10:40.539Z,101677.50
2018-11-04T07:11:43.515Z,101671.81
2018-11-04T07:12:46.195Z,101677.87
2018-11-04T07:13:48.899Z,101670.47
2018-11-04T07:14:51.582Z,101671.81
2018-11-04T07:15:54.246Z,101668.77
2018-11-04T07:16:56.935Z,101672.77
2018-11-04T07:17:59.626Z,101671.06
2018-11-04T07:19:02.325Z,101671.06
2018-11-04T07:20:06.066Z,101664.41
2018-11-04T07:21:08.715Z,101665.36
2018-11-04T07:22:11.684Z,101669.36
2018-11-04T07:23:14.375Z,101668.03
2018-11-04T07:24:17.071Z,101667.19
2018-11-04T07:25:19.738Z,101658.70
2018-11-04T07:26:22.418Z,101664.99
2018-11-04T07:27:25.385Z,101660.63
2018-11-04T07:28:28.107Z,101661.00
2018-11-04T07:29:30.790Z,101659.79
2018-11-04T07:30:33.490Z,101661.00
2018-11-04T07:31:36.194Z,101651.89
2018-11-04T07:32:39.182Z,101656.25
2018-11-04T07:33:41.883Z,101657.22
2018-11-04T07:34:44.574Z,101656.25
2018-11-04T07:35:47.479Z,101654.55
2018-11-04T07:36:50.170Z,101658.17
2018-11-04T07:37:53.187Z,101657.22
2018-11-04T07:38:55.894Z,101652.84
2018-11-04T07:39:58.598Z,101659.51
2018-11-04T07:41:01.289Z,101658.64
2018-11-04T07:42:04.200Z,101654.64
2018-11-04T07:43:07.174Z,101665.80
2018-11-04T07:44:09.895Z,101666.75
2018-11-04T07:45:12.584Z,101664.92
2018-11-04T07:46:15.299Z,101661.80
2018-11-04T07:47:17.982Z,101661.42
2018-11-04T07:48:20.958Z,101657.43
2018-11-04T07:49:23.640Z,101659.60
2018-11-04T07:50:26.402Z,101660.56
2018-11-04T07:51:29.111Z,101651.23
2018-11-04T07:52:31.812Z,101659.23
2018-11-04T07:53:34.851Z,101659.23
2018-11-04T07:54:37.566Z,101654.39
2018-11-04T07:55:40.298Z,101658.39
2018-11-04T07:56:43.029Z,101655.36
2018-11-04T07:57:45.707Z,101666.38
2018-11-04T07:58:48.702Z,101666.02
2018-11-04T07:59:51.392Z,101664.68
2018-11-04T08:00:54.215Z,101662.02
2018-11-04T08:01:56.859Z,101661.64
2018-11-04T08:02:59.579Z,101663.44
2018-11-04T08:04:02.689Z,101666.47
2018-11-04T08:05:05.776Z,101667.44
2018-11-04T08:06:08.484Z,101677.72
2018-11-04T08:07:11.187Z,101677.63
2018-11-04T08:08:13.883Z,101678.95
2018-11-04T08:09:16.727Z,101685.61
2018-11-04T08:10:19.410Z,101682.95
2018-11-04T08:11:22.114Z,101686.57
2018-11-04T08:12:24.814Z,101685.23
2018-11-04T08:13:27.550Z,101677.72
2018-11-04T08:14:30.584Z,101678.58
2018-11-04T08:15:33.284Z,101667.56
2018-11-04T08:16:35.959Z,101673.72
2018-11-04T08:17:38.990Z,101662.69
2018-11-04T08:18:41.840Z,101660.77
2018-11-04T08:19:44.846Z,101662.11
2018-11-04T08:20:47.539Z,101661.36
2018-11-04T08:21:50.278Z,101663.19
2018-11-04T08:22:52.971Z,101664.89
2018-11-04T08:23:55.643Z,101662.81
2018-11-04T08:24:58.646Z,101665.48
2018-11-04T08:26:01.347Z,101662.81
2018-11-04T08:27:04.119Z,101660.98
2018-11-04T08:28:13.507Z,101657.95
2018-11-04T08:29:16.204Z,101661.86
2018-11-04T08:30:19.216Z,101667.65
2018-11-04T08:31:21.903Z,101675.64
2018-11-04T08:32:25.232Z,101673.47
2018-11-04T08:33:27.949Z,101670.44
2018-11-04T08:34:30.627Z,101671.27
2018-11-04T08:35:33.326Z,101669.10
2018-11-04T08:36:36.022Z,101666.44
2018-11-04T08:37:38.923Z,101666.44
2018-11-04T08:38:41.631Z,101662.81
2018-11-04T08:39:44.396Z,101665.94
2018-11-04T08:40:47.297Z,101664.15
2018-11-04T08:41:49.995Z,101668.14
2018-11-04T08:42:52.679Z,101669.47
2018-11-04T08:43:55.354Z,101660.62
2018-11-04T08:44:58.038Z,101666.81
2018-11-04T08:46:01.087Z,101668.14
2018-11-04T08:47:03.878Z,101669.47
2018-11-04T08:48:06.627Z,101668.14
2018-11-04T08:49:09.312Z,101663.19
2018-11-04T08:50:12.005Z,101669.47
2018-11-04T08:51:14.958Z,101664.15
2018-11-04T08:52:17.660Z,101660.16
2018-11-04T08:53:20.366Z,101657.86
2018-11-04T08:54:23.049Z,101656.99
2018-11-04T08:55:25.724Z,101654.83
2018-11-04T08:56:28.797Z,101657.86
2018-11-04T08:57:31.459Z,101656.16
2018-11-04T08:58:34.145Z,101653.13
2018-11-04T08:59:36.806Z,101658.83
2018-11-04T09:00:39.478Z,101652.62
2018-11-04T09:01:42.454Z,101653.87
2018-11-04T09:02:45.235Z,101647.58
2018-11-04T09:03:47.939Z,101633.89
2018-11-04T09:04:50.627Z,101644.92
2018-11-04T09:05:53.328Z,101647.09
2018-11-04T09:06:56.014Z,101646.25
2018-11-04T09:07:58.721Z,101648.42
2018-11-04T09:09:01.424Z,101643.95
2018-11-04T09:10:06.150Z,101652.78
2018-11-04T09:11:08.841Z,101652.32
2018-11-04T09:12:11.814Z,101650.49
2018-11-04T09:13:14.491Z,101650.86
2018-11-04T09:14:17.238Z,101647.37
2018-11-04T09:15:19.904Z,101647.37
2018-11-04T09:16:22.624Z,101643.74
2018-11-04T09:17:25.599Z,101642.41
2018-11-04T09:18:28.380Z,101644.95
2018-11-04T09:19:31.078Z,101612.49
2018-11-04T09:20:33.734Z,101641.45
2018-11-04T09:21:36.453Z,101644.12
2018-11-04T09:22:39.956Z,101639.16
2018-11-04T09:23:42.642Z,101648.95
2018-11-04T09:24:45.242Z,101647.16
2018-11-04T09:25:47.902Z,101649.81
2018-11-04T09:26:50.592Z,101650.19
2018-11-04T09:27:53.257Z,101647.98
2018-11-04T09:28:55.982Z,101653.31
2018-11-04T09:29:58.634Z,101648.11
2018-11-04T09:31:01.318Z,101649.81
2018-11-04T09:32:04.342Z,101650.56
2018-11-04T09:33:07.306Z,101644.39
2018-11-04T09:34:09.971Z,101655.88
2018-11-04T09:35:12.952Z,101650.19
2018-11-04T09:36:15.809Z,101651.52
2018-11-04T09:37:18.309Z,101651.52
2018-11-04T09:38:21.601Z,101648.27
2018-11-04T09:39:24.503Z,101654.09
2018-11-04T09:40:27.178Z,101649.59
2018-11-04T09:41:29.859Z,101650.93
2018-11-04T09:42:32.527Z,101650.47
2018-11-04T09:43:35.538Z,101657.96
2018-11-04T09:44:38.202Z,101652.63
2018-11-04T09:45:40.907Z,101665.95
2018-11-04T09:46:43.606Z,101659.66
2018-11-04T09:47:46.302Z,101662.83
2018-11-04T09:48:49.307Z,101666.32
2018-11-04T09:49:52.041Z,101664.03
2018-11-04T09:50:54.723Z,101666.32
2018-11-04T09:51:57.397Z,101662.33
2018-11-04T09:53:00.090Z,101660.53
2018-11-04T09:54:02.794Z,101666.70
2018-11-04T09:55:06.238Z,101658.70
2018-11-04T09:56:08.938Z,101655.58
2018-11-04T09:57:11.634Z,101661.73
2018-11-04T09:58:14.328Z,101662.70
2018-11-04T09:59:17.314Z,101659.08
2018-11-04T10:00:19.987Z,101652.91
2018-11-04T10:01:22.654Z,101649.75
2018-11-04T10:02:25.320Z,101655.58
2018-11-04T10:03:28.021Z,101661.73
2018-11-04T10:04:30.964Z,101652.42
2018-11-04T10:05:33.622Z,101652.05
2018-11-04T10:06:36.269Z,101657.28
2018-11-04T10:07:39.314Z,101654.61
2018-11-04T10:08:41.979Z,101660.31
2018-11-04T10:09:44.931Z,101658.86
2018-11-04T10:10:47.807Z,101657.90
2018-11-04T10:11:50.442Z,101656.10
2018-11-04T10:12:53.118Z,101655.98
2018-11-04T10:13:55.795Z,101654.27
2018-11-04T10:14:58.431Z,101651.52
2018-11-04T10:16:01.132Z,101655.02
2018-11-04T10:17:03.826Z,101653.22
2018-11-04T10:18:06.466Z,101655.02
2018-11-04T10:19:09.333Z,101658.92
2018-11-04T10:20:13.003Z,101658.05
2018-11-04T10:21:15.526Z,101659.66
2018-11-04T10:22:18.171Z,101649.84
2018-11-04T10:23:20.826Z,101649.38
2018-11-04T10:24:23.486Z,101649.01
2018-11-04T10:25:26.488Z,101653.84
2018-11-04T10:26:29.131Z,101651.11
2018-11-04T10:27:31.794Z,101652.50
2018-11-04T10:28:34.474Z,101652.91
2018-11-04T10:29:37.110Z,101643.58
2018-11-04T10:30:40.034Z,101646.63
2018-11-04T10:31:42.702Z,101648.91
2018-11-04T10:32:45.502Z,101645.29
2018-11-04T10:33:48.139Z,101655.95
2018-11-04T10:34:50.787Z,101657.65
2018-11-04T10:35:53.714Z,101653.28
2018-11-04T10:36:56.385Z,101650.16
2018-11-04T10:37:59.041Z,101653.65
2018-11-04T10:39:01.687Z,101656.81
2018-11-04T10:40:05.211Z,101661.64
2018-11-04T10:41:08.259Z,101662.05
2018-11-04T10:42:10.918Z,101657.65
2018-11-04T10:43:13.593Z,101655.85
2018-11-04T10:44:16.263Z,101653.19
2018-11-04T10:45:18.906Z,101653.19
2018-11-04T10:46:21.902Z,101669.08
2018-11-04T10:47:24.556Z,101663.38
2018-11-04T10:48:27.235Z,101654.98
2018-11-04T10:49:30.016Z,101655.85
2018-11-04T10:50:32.598Z,101660.31
2018-11-04T10:51:35.531Z,101654.06
2018-11-04T10:52:38.178Z,101655.39
2018-11-04T10:53:40.826Z,101663.84
2018-11-04T10:54:43.474Z,101654.98
2018-11-04T10:55:46.246Z,101659.39
2018-11-04T10:56:49.128Z,101656.72
2018-11-04T10:57:51.808Z,101666.05
2018-11-04T10:58:54.478Z,101656.72
2018-11-04T10:59:57.134Z,101649.56
2018-11-04T11:01:05.406Z,101655.85
2018-11-04T11:02:08.058Z,101658.52
2018-11-04T11:03:10.747Z,101655.39
2018-11-04T11:04:13.507Z,101659.85
2018-11-04T11:05:16.427Z,101651.39
2018-11-04T11:06:19.106Z,101644.23
2018-11-04T11:07:22.062Z,101654.06
2018-11-04T11:08:24.765Z,101650.43
2018-11-04T11:09:27.407Z,101650.43
2018-11-04T11:10:30.045Z,101648.23
2018-11-04T11:11:32.703Z,101649.47
2018-11-04T11:12:35.722Z,101630.20
2018-11-04T11:13:38.378Z,101649.47
2018-11-04T11:14:41.018Z,101641.84
2018-11-04T11:15:43.698Z,101639.18
2018-11-04T11:16:46.380Z,101644.52
2018-11-04T11:17:49.334Z,101640.14
2018-11-04T11:18:51.994Z,101638.31
2018-11-04T11:19:54.658Z,101639.18
2018-11-04T11:20:57.301Z,101644.39
2018-11-04T11:21:59.954Z,101647.55
2018-11-04T11:23:03.007Z,101651.55
2018-11-04T11:24:05.805Z,101650.09
2018-11-04T11:25:09.054Z,101646.22
2018-11-04T11:26:11.715Z,101645.72
2018-11-04T11:27:14.410Z,101641.26
2018-11-04T11:28:17.074Z,101635.56
2018-11-04T11:29:19.726Z,101632.39
2018-11-04T11:30:22.379Z,101631.56
2018-11-04T11:31:25.025Z,101633.27
2018-11-04T11:32:27.674Z,101627.56
2018-11-04T11:33:30.365Z,101630.59
2018-11-04T11:34:33.020Z,101633.73
2018-11-04T11:35:35.701Z,101635.06
2018-11-04T11:36:38.342Z,101628.40
2018-11-04T11:37:41.023Z,101629.64
2018-11-04T11:38:43.996Z,101630.97
2018-11-04T11:39:46.645Z,101631.44
2018-11-04T11:40:49.305Z,101633.63
2018-11-04T11:41:51.938Z,101627.06
2018-11-04T11:42:54.598Z,101622.61
2018-11-04T11:43:57.507Z,101622.98
2018-11-04T11:45:00.257Z,101620.77
2018-11-04T11:46:02.871Z,101624.30
2018-11-04T11:47:05.659Z,101615.94
2018-11-04T11:48:08.722Z,101618.61
2018-11-04T11:49:11.754Z,101615.94
2018-11-04T11:50:14.412Z,101625.27
2018-11-04T11:51:17.116Z,101618.61
2018-11-04T11:52:19.813Z,101622.11
2018-11-04T11:53:22.716Z,101618.11
2018-11-04T11:54:25.723Z,101625.27
2018-11-04T11:55:28.431Z,101624.67
2018-11-04T11:56:31.096Z,101620.67